Terminal Aerodrome Forecast
Issued by NWS

Home | Current Version | Previous Version | Text Only | Print | Product List | Glossary On
Versions: 1 2 3 4 5 6 7 8 9 10 11 12 13 14 15 16 17 18 19
789
FTUS43 KGRR 201149
TAFBTL
TAF
KBTL 201149Z 2012/2112 21011KT P6SM SKC
     FM201530 21014G24KT P6SM BKN200
     FM201900 20017G27KT P6SM BKN200=

USA.gov is the U.S. government's official web portal to all federal, state and local government web resources and services.